sensor_id;sensor_type;location;lat;lon;timestamp;pressure;altitude;pressure_sealevel;temperature;humidity
80128;BME280;69440;52.118;5.408;2023-06-26T00:01:01;101310.31;;;22.12;68.51
80128;BME280;69440;52.118;5.408;2023-06-26T00:03:27;101310.41;;;22.20;68.23
80128;BME280;69440;52.118;5.408;2023-06-26T00:05:55;101295.59;;;22.13;68.44
80128;BME280;69440;52.118;5.408;2023-06-26T00:08:27;101298.34;;;22.13;68.17
80128;BME280;69440;52.118;5.408;2023-06-26T00:10:54;101298.03;;;22.16;68.57
80128;BME280;69440;52.118;5.408;2023-06-26T00:13:22;101302.34;;;22.19;68.06
80128;BME280;69440;52.118;5.408;2023-06-26T00:15:50;101303.34;;;22.18;68.04
80128;BME280;69440;52.118;5.408;2023-06-26T00:18:16;101297.25;;;22.24;67.44
80128;BME280;69440;52.118;5.408;2023-06-26T00:20:43;101300.00;;;22.24;66.97
80128;BME280;69440;52.118;5.408;2023-06-26T00:23:11;101294.50;;;22.24;67.28
80128;BME280;69440;52.118;5.408;2023-06-26T00:25:39;101306.66;;;22.21;67.39
80128;BME280;69440;52.118;5.408;2023-06-26T00:28:06;101300.31;;;22.21;67.42
80128;BME280;69440;52.118;5.408;2023-06-26T00:30:33;101298.13;;;22.24;66.91
80128;BME280;69440;52.118;5.408;2023-06-26T00:32:59;101288.56;;;22.28;66.52
80128;BME280;69440;52.118;5.408;2023-06-26T00:35:26;101279.59;;;22.36;65.92
80128;BME280;69440;52.118;5.408;2023-06-26T00:37:52;101272.38;;;22.53;64.38
80128;BME280;69440;52.118;5.408;2023-06-26T00:40:18;101273.47;;;22.60;63.94
80128;BME280;69440;52.118;5.408;2023-06-26T00:42:45;101279.13;;;22.41;65.53
80128;BME280;69440;52.118;5.408;2023-06-26T00:45:11;101274.72;;;22.30;66.39
80128;BME280;69440;52.118;5.408;2023-06-26T00:47:38;101267.91;;;22.16;66.17
80128;BME280;69440;52.118;5.408;2023-06-26T00:50:05;101277.28;;;22.14;66.68
80128;BME280;69440;52.118;5.408;2023-06-26T00:52:32;101260.06;;;22.04;66.90
80128;BME280;69440;52.118;5.408;2023-06-26T00:54:59;101268.53;;;22.00;67.39
80128;BME280;69440;52.118;5.408;2023-06-26T00:57:26;101271.44;;;21.99;67.98
80128;BME280;69440;52.118;5.408;2023-06-26T00:59:53;101276.06;;;21.98;67.03
80128;BME280;69440;52.118;5.408;2023-06-26T01:02:19;101276.91;;;21.99;67.12
80128;BME280;69440;52.118;5.408;2023-06-26T01:04:50;101285.03;;;21.91;67.92
80128;BME280;69440;52.118;5.408;2023-06-26T01:07:19;101284.72;;;21.94;67.41
80128;BME280;69440;52.118;5.408;2023-06-26T01:09:48;101286.69;;;22.01;67.20
80128;BME280;69440;52.118;5.408;2023-06-26T01:12:15;101300.38;;;22.11;66.23
80128;BME280;69440;52.118;5.408;2023-06-26T01:14:41;101294.16;;;22.37;64.50
80128;BME280;69440;52.118;5.408;2023-06-26T01:17:09;101292.34;;;22.45;64.49
80128;BME280;69440;52.118;5.408;2023-06-26T01:19:40;101294.69;;;22.58;63.62
80128;BME280;69440;52.118;5.408;2023-06-26T01:24:45;101291.63;;;22.79;62.53
80128;BME280;69440;52.118;5.408;2023-06-26T01:27:16;101288.34;;;22.75;62.47
80128;BME280;69440;52.118;5.408;2023-06-26T01:29:44;101301.03;;;22.76;62.32
80128;BME280;69440;52.118;5.408;2023-06-26T01:32:11;101311.81;;;22.78;62.37
80128;BME280;69440;52.118;5.408;2023-06-26T01:34:38;101325.84;;;22.75;62.23
80128;BME280;69440;52.118;5.408;2023-06-26T01:37:05;101315.91;;;22.74;62.63
80128;BME280;69440;52.118;5.408;2023-06-26T01:39:32;101326.16;;;22.72;62.62
80128;BME280;69440;52.118;5.408;2023-06-26T01:41:58;101319.28;;;22.68;62.79
80128;BME280;69440;52.118;5.408;2023-06-26T01:44:30;101321.06;;;22.59;63.07
80128;BME280;69440;52.118;5.408;2023-06-26T01:47:05;101325.22;;;22.63;63.07
80128;BME280;69440;52.118;5.408;2023-06-26T01:57:47;101325.63;;;22.50;62.88
80128;BME280;69440;52.118;5.408;2023-06-26T02:00:19;101330.06;;;22.51;62.86
80128;BME280;69440;52.118;5.408;2023-06-26T02:02:47;101326.09;;;22.46;62.34
80128;BME280;69440;52.118;5.408;2023-06-26T02:05:14;101325.38;;;22.44;62.84
80128;BME280;69440;52.118;5.408;2023-06-26T02:07:41;101324.84;;;22.40;62.96
80128;BME280;69440;52.118;5.408;2023-06-26T02:10:08;101327.03;;;22.37;62.89
80128;BME280;69440;52.118;5.408;2023-06-26T02:12:36;101329.28;;;22.41;62.41
80128;BME280;69440;52.118;5.408;2023-06-26T02:15:03;101333.25;;;22.29;62.99
80128;BME280;69440;52.118;5.408;2023-06-26T02:17:30;101323.22;;;22.20;63.08
80128;BME280;69440;52.118;5.408;2023-06-26T02:19:57;101328.47;;;22.13;63.57
80128;BME280;69440;52.118;5.408;2023-06-26T02:22:23;101340.75;;;22.09;63.60
80128;BME280;69440;52.118;5.408;2023-06-26T02:24:50;101335.13;;;22.11;63.58
80128;BME280;69440;52.118;5.408;2023-06-26T02:27:16;101335.56;;;22.06;63.80
80128;BME280;69440;52.118;5.408;2023-06-26T02:29:43;101335.81;;;22.03;64.14
80128;BME280;69440;52.118;5.408;2023-06-26T02:32:10;101333.38;;;22.00;64.27
80128;BME280;69440;52.118;5.408;2023-06-26T02:34:36;101337.75;;;21.93;64.57
80128;BME280;69440;52.118;5.408;2023-06-26T02:37:03;101335.94;;;21.84;64.82
80128;BME280;69440;52.118;5.408;2023-06-26T02:39:29;101345.94;;;21.75;65.23
80128;BME280;69440;52.118;5.408;2023-06-26T02:41:56;101343.28;;;21.83;65.13
80128;BME280;69440;52.118;5.408;2023-06-26T02:44:22;101341.72;;;21.81;65.29
80128;BME280;69440;52.118;5.408;2023-06-26T02:46:48;101334.13;;;21.75;65.88
80128;BME280;69440;52.118;5.408;2023-06-26T02:49:15;101341.59;;;21.73;65.85
80128;BME280;69440;52.118;5.408;2023-06-26T02:51:42;101342.34;;;21.65;65.91
80128;BME280;69440;52.118;5.408;2023-06-26T02:54:08;101346.25;;;21.62;66.41
80128;BME280;69440;52.118;5.408;2023-06-26T02:56:35;101352.84;;;21.69;65.99
80128;BME280;69440;52.118;5.408;2023-06-26T02:59:10;101354.00;;;21.67;65.82
80128;BME280;69440;52.118;5.408;2023-06-26T03:01:36;101365.09;;;21.65;66.13
80128;BME280;69440;52.118;5.408;2023-06-26T03:04:03;101350.41;;;21.66;66.11
80128;BME280;69440;52.118;5.408;2023-06-26T03:06:31;101347.41;;;21.60;66.55
80128;BME280;69440;52.118;5.408;2023-06-26T03:08:57;101356.22;;;21.54;66.56
80128;BME280;69440;52.118;5.408;2023-06-26T03:11:24;101366.72;;;21.58;66.69
80128;BME280;69440;52.118;5.408;2023-06-26T03:13:51;101363.16;;;21.48;66.97
80128;BME280;69440;52.118;5.408;2023-06-26T03:16:18;101363.31;;;21.47;67.13
80128;BME280;69440;52.118;5.408;2023-06-26T03:18:44;101365.75;;;21.50;67.48
80128;BME280;69440;52.118;5.408;2023-06-26T03:21:11;101364.72;;;21.51;67.11
80128;BME280;69440;52.118;5.408;2023-06-26T03:23:38;101367.03;;;21.46;67.25
80128;BME280;69440;52.118;5.408;2023-06-26T03:26:05;101370.19;;;21.41;67.48
80128;BME280;69440;52.118;5.408;2023-06-26T03:28:32;101368.78;;;21.47;67.58
80128;BME280;69440;52.118;5.408;2023-06-26T03:30:58;101372.78;;;21.43;67.66
80128;BME280;69440;52.118;5.408;2023-06-26T03:33:25;101370.66;;;21.36;67.75
80128;BME280;69440;52.118;5.408;2023-06-26T03:35:51;101369.19;;;21.42;67.69
80128;BME280;69440;52.118;5.408;2023-06-26T03:38:19;101362.00;;;21.41;67.81
80128;BME280;69440;52.118;5.408;2023-06-26T03:40:45;101373.69;;;21.33;68.19
80128;BME280;69440;52.118;5.408;2023-06-26T03:43:12;101382.78;;;21.24;68.58
80128;BME280;69440;52.118;5.408;2023-06-26T03:45:38;101383.47;;;21.26;68.69
80128;BME280;69440;52.118;5.408;2023-06-26T03:48:05;101383.03;;;21.21;68.74
80128;BME280;69440;52.118;5.408;2023-06-26T03:50:32;101389.34;;;21.12;68.98
80128;BME280;69440;52.118;5.408;2023-06-26T03:52:58;101389.09;;;21.15;69.36
80128;BME280;69440;52.118;5.408;2023-06-26T03:55:25;101391.69;;;21.17;69.37
80128;BME280;69440;52.118;5.408;2023-06-26T03:57:52;101392.38;;;21.09;69.42
80128;BME280;69440;52.118;5.408;2023-06-26T04:00:18;101396.41;;;21.05;68.86
80128;BME280;69440;52.118;5.408;2023-06-26T04:02:45;101406.91;;;21.00;68.47
80128;BME280;69440;52.118;5.408;2023-06-26T04:05:11;101412.25;;;21.01;68.61
80128;BME280;69440;52.118;5.408;2023-06-26T04:07:38;101419.31;;;20.94;68.57
80128;BME280;69440;52.118;5.408;2023-06-26T04:10:05;101421.75;;;20.97;67.96
80128;BME280;69440;52.118;5.408;2023-06-26T04:12:32;101427.06;;;20.99;67.66
80128;BME280;69440;52.118;5.408;2023-06-26T04:14:58;101423.75;;;20.95;67.75
80128;BME280;69440;52.118;5.408;2023-06-26T04:17:25;101431.09;;;20.95;68.28
80128;BME280;69440;52.118;5.408;2023-06-26T04:19:51;101426.34;;;20.97;67.29
80128;BME280;69440;52.118;5.408;2023-06-26T04:22:18;101432.09;;;20.94;67.82
80128;BME280;69440;52.118;5.408;2023-06-26T04:24:44;101426.06;;;20.90;67.79
80128;BME280;69440;52.118;5.408;2023-06-26T04:27:12;101430.94;;;20.87;68.17
80128;BME280;69440;52.118;5.408;2023-06-26T04:29:40;101436.41;;;20.87;68.56
80128;BME280;69440;52.118;5.408;2023-06-26T04:32:06;101435.84;;;20.83;67.92
80128;BME280;69440;52.118;5.408;2023-06-26T04:34:33;101446.03;;;20.81;67.94
80128;BME280;69440;52.118;5.408;2023-06-26T04:37:00;101435.84;;;20.83;68.14
80128;BME280;69440;52.118;5.408;2023-06-26T04:39:26;101447.78;;;20.82;67.93
80128;BME280;69440;52.118;5.408;2023-06-26T04:41:53;101440.44;;;20.83;68.10
80128;BME280;69440;52.118;5.408;2023-06-26T04:44:19;101452.09;;;20.85;68.20
80128;BME280;69440;52.118;5.408;2023-06-26T04:46:46;101460.69;;;20.80;68.23
80128;BME280;69440;52.118;5.408;2023-06-26T04:49:12;101456.22;;;20.79;68.12
80128;BME280;69440;52.118;5.408;2023-06-26T04:51:39;101457.81;;;20.72;67.84
80128;BME280;69440;52.118;5.408;2023-06-26T04:54:07;101469.31;;;20.75;67.59
80128;BME280;69440;52.118;5.408;2023-06-26T04:56:34;101472.06;;;20.75;67.43
80128;BME280;69440;52.118;5.408;2023-06-26T04:59:02;101476.41;;;20.88;67.26
80128;BME280;69440;52.118;5.408;2023-06-26T05:01:29;101475.53;;;20.87;67.16
80128;BME280;69440;52.118;5.408;2023-06-26T05:03:56;101480.00;;;20.88;67.12
80128;BME280;69440;52.118;5.408;2023-06-26T05:06:23;101482.56;;;20.80;66.63
80128;BME280;69440;52.118;5.408;2023-06-26T05:08:49;101481.25;;;20.74;67.12
80128;BME280;69440;52.118;5.408;2023-06-26T05:11:16;101487.59;;;20.75;67.40
80128;BME280;69440;52.118;5.408;2023-06-26T05:13:43;101476.38;;;20.78;66.80
80128;BME280;69440;52.118;5.408;2023-06-26T05:16:09;101479.72;;;20.82;66.41
80128;BME280;69440;52.118;5.408;2023-06-26T05:18:36;101481.00;;;20.87;66.87
80128;BME280;69440;52.118;5.408;2023-06-26T05:21:03;101488.31;;;20.77;66.73
80128;BME280;69440;52.118;5.408;2023-06-26T05:23:31;101496.34;;;20.69;67.16
80128;BME280;69440;52.118;5.408;2023-06-26T05:25:58;101492.75;;;20.78;67.12
80128;BME280;69440;52.118;5.408;2023-06-26T05:28:25;101496.69;;;20.85;66.61
80128;BME280;69440;52.118;5.408;2023-06-26T05:30:59;101506.13;;;20.81;67.31
80128;BME280;69440;52.118;5.408;2023-06-26T05:33:26;101503.56;;;20.80;67.14
80128;BME280;69440;52.118;5.408;2023-06-26T05:35:54;101509.00;;;20.80;66.63
80128;BME280;69440;52.118;5.408;2023-06-26T05:38:21;101514.75;;;20.76;67.16
80128;BME280;69440;52.118;5.408;2023-06-26T05:40:48;101523.28;;;20.83;66.48
80128;BME280;69440;52.118;5.408;2023-06-26T05:43:14;101523.44;;;20.91;66.99
80128;BME280;69440;52.118;5.408;2023-06-26T05:45:41;101518.72;;;21.03;65.98
80128;BME280;69440;52.118;5.408;2023-06-26T05:48:07;101520.16;;;21.07;65.62
80128;BME280;69440;52.118;5.408;2023-06-26T05:50:35;101524.22;;;21.13;65.85
80128;BME280;69440;52.118;5.408;2023-06-26T05:53:02;101518.75;;;21.13;65.08
80128;BME280;69440;52.118;5.408;2023-06-26T05:55:32;101523.75;;;21.07;65.76
80128;BME280;69440;52.118;5.408;2023-06-26T05:57:59;101530.94;;;21.08;64.93
80128;BME280;69440;52.118;5.408;2023-06-26T06:00:27;101540.00;;;21.09;65.00
80128;BME280;69440;52.118;5.408;2023-06-26T06:02:54;101545.66;;;21.17;65.14
80128;BME280;69440;52.118;5.408;2023-06-26T06:05:21;101549.44;;;21.26;64.29
80128;BME280;69440;52.118;5.408;2023-06-26T06:07:49;101555.47;;;21.29;63.90
80128;BME280;69440;52.118;5.408;2023-06-26T06:10:15;101558.78;;;21.33;63.69
80128;BME280;69440;52.118;5.408;2023-06-26T06:12:42;101566.72;;;21.36;64.16
80128;BME280;69440;52.118;5.408;2023-06-26T06:15:08;101565.69;;;21.37;64.20
80128;BME280;69440;52.118;5.408;2023-06-26T06:17:35;101564.69;;;21.38;64.05
80128;BME280;69440;52.118;5.408;2023-06-26T06:20:02;101569.00;;;21.41;63.48
80128;BME280;69440;52.118;5.408;2023-06-26T06:22:29;101574.91;;;21.36;63.22
80128;BME280;69440;52.118;5.408;2023-06-26T06:24:55;101584.84;;;21.37;62.97
80128;BME280;69440;52.118;5.408;2023-06-26T06:27:22;101586.88;;;21.35;62.77
80128;BME280;69440;52.118;5.408;2023-06-26T06:29:49;101578.66;;;21.35;62.95
80128;BME280;69440;52.118;5.408;2023-06-26T06:32:15;101592.19;;;21.36;62.46
80128;BME280;69440;52.118;5.408;2023-06-26T06:34:42;101594.25;;;21.44;62.62
80128;BME280;69440;52.118;5.408;2023-06-26T06:37:09;101601.72;;;21.52;61.96
80128;BME280;69440;52.118;5.408;2023-06-26T06:39:35;101610.66;;;21.63;62.06
80128;BME280;69440;52.118;5.408;2023-06-26T06:42:02;101615.16;;;21.74;62.08
80128;BME280;69440;52.118;5.408;2023-06-26T06:44:28;101616.59;;;21.78;62.28
80128;BME280;69440;52.118;5.408;2023-06-26T06:46:57;101621.03;;;21.50;62.91
80128;BME280;69440;52.118;5.408;2023-06-26T06:49:23;101634.69;;;21.50;62.85
80128;BME280;69440;52.118;5.408;2023-06-26T06:51:50;101643.00;;;21.39;63.17
80128;BME280;69440;52.118;5.408;2023-06-26T06:54:16;101649.16;;;21.22;63.83
80128;BME280;69440;52.118;5.408;2023-06-26T06:56:43;101656.81;;;21.28;64.31
80128;BME280;69440;52.118;5.408;2023-06-26T06:59:10;101637.53;;;21.39;64.24
80128;BME280;69440;52.118;5.408;2023-06-26T07:01:36;101634.41;;;21.44;63.04
80128;BME280;69440;52.118;5.408;2023-06-26T07:04:03;101629.53;;;21.57;63.10
80128;BME280;69440;52.118;5.408;2023-06-26T07:06:30;101640.03;;;21.61;62.96
80128;BME280;69440;52.118;5.408;2023-06-26T07:08:57;101642.38;;;21.76;63.28
80128;BME280;69440;52.118;5.408;2023-06-26T07:11:23;101641.94;;;21.80;63.05
80128;BME280;69440;52.118;5.408;2023-06-26T07:13:50;101649.72;;;21.75;62.58
80128;BME280;69440;52.118;5.408;2023-06-26T07:16:16;101655.88;;;21.67;63.31
80128;BME280;69440;52.118;5.408;2023-06-26T07:18:44;101656.06;;;21.76;62.86
80128;BME280;69440;52.118;5.408;2023-06-26T07:21:11;101661.97;;;21.90;62.97
80128;BME280;69440;52.118;5.408;2023-06-26T07:23:37;101667.56;;;21.98;63.96
80128;BME280;69440;52.118;5.408;2023-06-26T07:26:04;101663.41;;;22.23;62.02
80128;BME280;69440;52.118;5.408;2023-06-26T07:28:31;101666.16;;;22.23;61.58
80128;BME280;69440;52.118;5.408;2023-06-26T07:30:57;101660.41;;;22.17;61.50
80128;BME280;69440;52.118;5.408;2023-06-26T07:33:23;101675.34;;;22.03;61.93
80128;BME280;69440;52.118;5.408;2023-06-26T07:35:50;101676.75;;;21.68;62.27
80128;BME280;69440;52.118;5.408;2023-06-26T07:38:17;101677.63;;;21.50;63.59
80128;BME280;69440;52.118;5.408;2023-06-26T07:40:43;101679.94;;;21.64;63.06
80128;BME280;69440;52.118;5.408;2023-06-26T07:43:10;101675.66;;;21.81;62.65
80128;BME280;69440;52.118;5.408;2023-06-26T07:45:36;101679.09;;;21.92;62.64
80128;BME280;69440;52.118;5.408;2023-06-26T07:48:03;101685.63;;;22.20;61.81
80128;BME280;69440;52.118;5.408;2023-06-26T07:50:29;101679.25;;;22.29;60.47
80128;BME280;69440;52.118;5.408;2023-06-26T07:52:56;101688.78;;;22.45;60.87
80128;BME280;69440;52.118;5.408;2023-06-26T07:55:23;101682.00;;;22.39;60.79
80128;BME280;69440;52.118;5.408;2023-06-26T07:57:49;101694.53;;;22.32;60.90
80128;BME280;69440;52.118;5.408;2023-06-26T08:00:18;101698.28;;;22.31;60.78
80128;BME280;69440;52.118;5.408;2023-06-26T08:02:45;101705.09;;;22.17;60.85
80128;BME280;69440;52.118;5.408;2023-06-26T08:05:11;101699.59;;;22.27;61.84
80128;BME280;69440;52.118;5.408;2023-06-26T08:07:38;101694.13;;;22.37;60.09
80128;BME280;69440;52.118;5.408;2023-06-26T08:10:05;101696.38;;;22.60;59.60
80128;BME280;69440;52.118;5.408;2023-06-26T08:12:32;101695.13;;;22.45;59.72
80128;BME280;69440;52.118;5.408;2023-06-26T08:14:58;101700.19;;;22.21;59.88
80128;BME280;69440;52.118;5.408;2023-06-26T08:17:25;101701.19;;;22.10;60.33
80128;BME280;69440;52.118;5.408;2023-06-26T08:19:55;101698.16;;;22.42;60.03
80128;BME280;69440;52.118;5.408;2023-06-26T08:22:21;101707.63;;;22.57;59.25
80128;BME280;69440;52.118;5.408;2023-06-26T08:24:48;101703.00;;;22.68;59.31
80128;BME280;69440;52.118;5.408;2023-06-26T08:27:14;101706.34;;;22.52;58.70
80128;BME280;69440;52.118;5.408;2023-06-26T08:29:41;101709.81;;;22.44;59.63
80128;BME280;69440;52.118;5.408;2023-06-26T08:32:07;101702.56;;;22.62;57.78
80128;BME280;69440;52.118;5.408;2023-06-26T08:34:34;101714.25;;;22.65;56.01
80128;BME280;69440;52.118;5.408;2023-06-26T08:37:00;101711.28;;;22.39;57.21
80128;BME280;69440;52.118;5.408;2023-06-26T08:39:27;101711.84;;;22.33;57.32
80128;BME280;69440;52.118;5.408;2023-06-26T08:41:54;101724.53;;;22.34;57.31
80128;BME280;69440;52.118;5.408;2023-06-26T08:44:21;101722.81;;;22.23;55.55
80128;BME280;69440;52.118;5.408;2023-06-26T08:46:51;101720.50;;;22.47;56.17
80128;BME280;69440;52.118;5.408;2023-06-26T08:49:21;101730.75;;;22.45;55.91
80128;BME280;69440;52.118;5.408;2023-06-26T08:52:02;101721.22;;;22.49;56.27
80128;BME280;69440;52.118;5.408;2023-06-26T08:54:34;101732.19;;;22.40;56.95
80128;BME280;69440;52.118;5.408;2023-06-26T08:57:04;101744.16;;;22.48;54.68
80128;BME280;69440;52.118;5.408;2023-06-26T08:59:32;101740.97;;;22.34;54.55
80128;BME280;69440;52.118;5.408;2023-06-26T09:01:58;101749.47;;;22.21;54.58
80128;BME280;69440;52.118;5.408;2023-06-26T09:04:25;101753.38;;;22.47;55.71
80128;BME280;69440;52.118;5.408;2023-06-26T09:06:52;101755.38;;;22.74;54.42
80128;BME280;69440;52.118;5.408;2023-06-26T09:09:18;101765.19;;;22.86;54.06
80128;BME280;69440;52.118;5.408;2023-06-26T09:11:45;101765.47;;;22.64;52.81
80128;BME280;69440;52.118;5.408;2023-06-26T09:14:12;101763.34;;;22.39;53.54
80128;BME280;69440;52.118;5.408;2023-06-26T09:16:40;101766.50;;;22.24;54.42
80128;BME280;69440;52.118;5.408;2023-06-26T09:19:10;101767.34;;;22.25;53.81
80128;BME280;69440;52.118;5.408;2023-06-26T09:21:39;101774.41;;;22.27;53.64
80128;BME280;69440;52.118;5.408;2023-06-26T09:24:07;101774.13;;;22.50;52.37
80128;BME280;69440;52.118;5.408;2023-06-26T09:26:38;101787.69;;;22.22;52.98
80128;BME280;69440;52.118;5.408;2023-06-26T09:29:05;101782.78;;;22.16;53.22
80128;BME280;69440;52.118;5.408;2023-06-26T09:31:33;101793.03;;;22.24;54.53
80128;BME280;69440;52.118;5.408;2023-06-26T09:34:07;101800.84;;;22.67;54.02
80128;BME280;69440;52.118;5.408;2023-06-26T09:36:33;101799.38;;;23.02;52.90
80128;BME280;69440;52.118;5.408;2023-06-26T09:39:07;101791.88;;;22.75;52.14
80128;BME280;69440;52.118;5.408;2023-06-26T09:41:40;101793.03;;;22.72;53.17
80128;BME280;69440;52.118;5.408;2023-06-26T09:44:10;101800.09;;;22.55;53.52
80128;BME280;69440;52.118;5.408;2023-06-26T09:46:37;101795.34;;;22.48;51.76
80128;BME280;69440;52.118;5.408;2023-06-26T09:49:06;101798.22;;;22.56;52.83
80128;BME280;69440;52.118;5.408;2023-06-26T09:51:35;101806.16;;;22.69;52.46
80128;BME280;69440;52.118;5.408;2023-06-26T09:54:03;101806.13;;;23.07;52.12
80128;BME280;69440;52.118;5.408;2023-06-26T09:56:31;101812.00;;;23.22;50.62
80128;BME280;69440;52.118;5.408;2023-06-26T09:59:00;101810.25;;;23.31;49.80
80128;BME280;69440;52.118;5.408;2023-06-26T10:01:30;101810.28;;;23.21;49.89
80128;BME280;69440;52.118;5.408;2023-06-26T10:03:57;101809.00;;;23.15;50.00
80128;BME280;69440;52.118;5.408;2023-06-26T10:06:32;101812.44;;;23.27;49.60
80128;BME280;69440;52.118;5.408;2023-06-26T10:09:00;101822.72;;;23.15;49.44
80128;BME280;69440;52.118;5.408;2023-06-26T10:11:35;101822.38;;;23.38;49.02
80128;BME280;69440;52.118;5.408;2023-06-26T10:14:04;101824.94;;;23.59;48.77
80128;BME280;69440;52.118;5.408;2023-06-26T10:16:44;101817.66;;;23.67;48.07
80128;BME280;69440;52.118;5.408;2023-06-26T10:19:11;101832.75;;;23.44;48.69
80128;BME280;69440;52.118;5.408;2023-06-26T10:21:39;101838.97;;;23.36;48.17
80128;BME280;69440;52.118;5.408;2023-06-26T10:24:07;101843.53;;;23.55;48.01
80128;BME280;69440;52.118;5.408;2023-06-26T10:26:42;101838.34;;;23.62;47.54
80128;BME280;69440;52.118;5.408;2023-06-26T10:29:10;101845.44;;;23.45;47.39
80128;BME280;69440;52.118;5.408;2023-06-26T10:31:39;101843.81;;;23.52;47.36
80128;BME280;69440;52.118;5.408;2023-06-26T10:34:07;101834.91;;;23.60;46.92
80128;BME280;69440;52.118;5.408;2023-06-26T10:36:35;101854.97;;;23.50;48.74
80128;BME280;69440;52.118;5.408;2023-06-26T10:39:06;101849.06;;;23.82;47.85
80128;BME280;69440;52.118;5.408;2023-06-26T10:41:37;101852.59;;;23.75;46.95
80128;BME280;69440;52.118;5.408;2023-06-26T10:44:18;101853.09;;;23.61;48.39
80128;BME280;69440;52.118;5.408;2023-06-26T10:46:52;101845.28;;;23.66;47.12
80128;BME280;69440;52.118;5.408;2023-06-26T10:49:21;101846.88;;;23.86;45.87
80128;BME280;69440;52.118;5.408;2023-06-26T10:51:50;101846.78;;;24.05;46.40
80128;BME280;69440;52.118;5.408;2023-06-26T10:54:18;101861.78;;;24.11;44.65
80128;BME280;69440;52.118;5.408;2023-06-26T10:56:47;101854.16;;;24.05;45.56
80128;BME280;69440;52.118;5.408;2023-06-26T10:59:19;101870.31;;;23.90;44.12
80128;BME280;69440;52.118;5.408;2023-06-26T11:02:04;101872.28;;;23.98;45.38
80128;BME280;69440;52.118;5.408;2023-06-26T11:04:40;101863.44;;;24.31;43.70
80128;BME280;69440;52.118;5.408;2023-06-26T11:07:20;101872.28;;;24.25;43.13
80128;BME280;69440;52.118;5.408;2023-06-26T11:10:00;101876.22;;;24.23;43.05
80128;BME280;69440;52.118;5.408;2023-06-26T11:12:53;101884.09;;;24.35;43.80
80128;BME280;69440;52.118;5.408;2023-06-26T11:15:20;101880.72;;;24.41;42.68
80128;BME280;69440;52.118;5.408;2023-06-26T11:17:48;101873.16;;;24.53;42.28
80128;BME280;69440;52.118;5.408;2023-06-26T11:20:16;101874.84;;;24.36;43.25
80128;BME280;69440;52.118;5.408;2023-06-26T11:22:42;101882.53;;;24.33;42.11
80128;BME280;69440;52.118;5.408;2023-06-26T11:25:10;101891.88;;;24.40;42.86
80128;BME280;69440;52.118;5.408;2023-06-26T11:27:41;101893.41;;;24.52;43.60
80128;BME280;69440;52.118;5.408;2023-06-26T11:30:10;101893.81;;;24.57;43.73
80128;BME280;69440;52.118;5.408;2023-06-26T11:32:38;101906.31;;;25.05;43.68
80128;BME280;69440;52.118;5.408;2023-06-26T11:35:05;101895.47;;;25.21;41.49
80128;BME280;69440;52.118;5.408;2023-06-26T11:37:32;101901.34;;;24.91;42.60
80128;BME280;69440;52.118;5.408;2023-06-26T11:39:59;101892.47;;;24.61;42.17
80128;BME280;69440;52.118;5.408;2023-06-26T11:42:25;101900.00;;;24.95;41.73
80128;BME280;69440;52.118;5.408;2023-06-26T11:44:52;101898.03;;;25.23;41.41
80128;BME280;69440;52.118;5.408;2023-06-26T11:47:20;101903.00;;;25.19;40.59
80128;BME280;69440;52.118;5.408;2023-06-26T11:49:49;101904.25;;;25.68;40.28
80128;BME280;69440;52.118;5.408;2023-06-26T11:52:16;101926.59;;;25.22;41.08
80128;BME280;69440;52.118;5.408;2023-06-26T11:54:42;101927.25;;;25.16;41.08
80128;BME280;69440;52.118;5.408;2023-06-26T11:57:13;101926.69;;;25.56;40.52
80128;BME280;69440;52.118;5.408;2023-06-26T11:59:40;101945.13;;;26.07;40.22
80128;BME280;69440;52.118;5.408;2023-06-26T12:02:09;101940.53;;;26.24;37.35
80128;BME280;69440;52.118;5.408;2023-06-26T12:04:37;101954.25;;;26.42;37.02
80128;BME280;69440;52.118;5.408;2023-06-26T12:07:06;101955.16;;;26.16;35.95
80128;BME280;69440;52.118;5.408;2023-06-26T12:09:39;101953.66;;;25.96;36.56
80128;BME280;69440;52.118;5.408;2023-06-26T12:12:08;101963.41;;;26.16;36.51
80128;BME280;69440;52.118;5.408;2023-06-26T12:14:35;101946.31;;;26.39;36.24
80128;BME280;69440;52.118;5.408;2023-06-26T12:17:08;101968.59;;;26.19;35.69
80128;BME280;69440;52.118;5.408;2023-06-26T12:19:37;101959.09;;;26.48;33.49
80128;BME280;69440;52.118;5.408;2023-06-26T12:22:08;101963.06;;;26.45;33.03
80128;BME280;69440;52.118;5.408;2023-06-26T12:24:39;101958.25;;;26.47;34.11
80128;BME280;69440;52.118;5.408;2023-06-26T12:27:10;101956.69;;;27.11;34.53
80128;BME280;69440;52.118;5.408;2023-06-26T12:29:39;101951.63;;;26.90;34.82
80128;BME280;69440;52.118;5.408;2023-06-26T12:32:10;101944.28;;;27.40;32.96
80128;BME280;69440;52.118;5.408;2023-06-26T12:34:38;101931.84;;;27.28;32.63
80128;BME280;69440;52.118;5.408;2023-06-26T12:37:10;101935.28;;;27.05;33.23
80128;BME280;69440;52.118;5.408;2023-06-26T12:39:54;101960.47;;;27.18;32.51
80128;BME280;69440;52.118;5.408;2023-06-26T12:42:24;101965.31;;;27.08;32.72
80128;BME280;69440;52.118;5.408;2023-06-26T12:44:52;101965.00;;;27.28;32.36
80128;BME280;69440;52.118;5.408;2023-06-26T12:47:23;101962.22;;;27.03;32.91
80128;BME280;69440;52.118;5.408;2023-06-26T12:49:51;101967.03;;;27.17;33.73
80128;BME280;69440;52.118;5.408;2023-06-26T12:52:18;101966.53;;;27.06;33.78
80128;BME280;69440;52.118;5.408;2023-06-26T12:54:52;101981.53;;;26.53;34.91
80128;BME280;69440;52.118;5.408;2023-06-26T12:57:19;101970.50;;;26.53;35.12
80128;BME280;69440;52.118;5.408;2023-06-26T12:59:45;101971.41;;;26.70;32.63
80128;BME280;69440;52.118;5.408;2023-06-26T13:02:12;101977.75;;;26.62;34.99
80128;BME280;69440;52.118;5.408;2023-06-26T13:04:40;101965.50;;;26.56;36.26